Time;durP1;ratioP1;P1;durP2;ratioP2;P2;SDS_P1;SDS_P2;PMS_P1;PMS_P2;Temp;Humidity;BMP_temperature;BMP_pressure;BME280_temperature;BME280_humidity;BME280_pressure;Samples;Min_cycle;Max_cycle;Signal;HPM_P1;HPM_P2
2022/03/08 00:01:02;;;;;;;23.40;15.18;;;-1.50;99.90;;;;;;1826123;78;21077;-75
2022/03/08 00:03:30;;;;;;;21.70;15.20;;;-1.60;99.90;;;;;;1826299;78;21138;-74
2022/03/08 00:05:58;;;;;;;23.10;15.43;;;-1.50;99.90;;;;;;1826451;77;21050;-74
2022/03/08 00:08:26;;;;;;;24.47;15.55;;;-1.60;99.90;;;;;;1826304;77;21147;-75
2022/03/08 00:10:54;;;;;;;25.85;15.83;;;-1.60;99.90;;;;;;1826365;78;21061;-71
2022/03/08 00:13:22;;;;;;;21.93;14.43;;;-1.60;99.90;;;;;;1826419;77;21022;-74
2022/03/08 00:15:49;;;;;;;22.13;14.83;;;-1.60;99.90;;;;;;1826341;77;21135;-74
2022/03/08 00:18:17;;;;;;;29.20;15.20;;;-1.50;99.90;;;;;;1826245;78;21034;-72
2022/03/08 00:20:44;;;;;;;21.25;14.35;;;-1.50;99.90;;;;;;1826382;78;21162;-73
2022/03/08 00:23:12;;;;;;;22.17;14.85;;;-1.60;99.90;;;;;;1826373;78;21196;-75
2022/03/08 00:25:39;;;;;;;19.90;14.83;;;-1.70;99.90;;;;;;1826235;78;21061;-73
2022/03/08 00:28:06;;;;;;;23.70;14.25;;;-1.80;99.90;;;;;;1826484;78;21029;-72
2022/03/08 00:30:35;;;;;;;25.15;15.18;;;-1.80;99.90;;;;;;1837053;77;21061;-74
2022/03/08 00:33:04;;;;;;;20.88;13.93;;;-1.80;99.90;;;;;;1826475;78;21045;-73
2022/03/08 00:35:31;;;;;;;19.48;12.90;;;-1.80;99.90;;;;;;1826304;77;21053;-73
2022/03/08 00:38:03;;;;;;;28.85;14.78;;;-1.80;99.90;;;;;;1826190;78;21163;-73
2022/03/08 00:40:27;;;;;;;22.50;13.98;;;-1.70;99.90;;;;;;1824547;78;21163;-74
2022/03/08 00:42:54;;;;;;;24.02;14.70;;;-1.50;99.90;;;;;;1824325;78;21176;-74
2022/03/08 00:45:22;;;;;;;25.65;15.55;;;-1.50;99.90;;;;;;1826254;78;21049;-73
2022/03/08 00:47:49;;;;;;;21.90;14.70;;;-1.50;99.90;;;;;;1825663;77;21073;-74
2022/03/08 00:50:22;;;;;;;25.50;15.30;;;-1.70;99.90;;;;;;1825695;78;21058;-73
2022/03/08 00:53:08;;;;;;;28.47;15.28;;;-1.70;99.90;;;;;;1826029;77;21150;-75
2022/03/08 00:55:36;;;;;;;21.73;14.70;;;-1.70;99.90;;;;;;1819671;78;21397;-75
2022/03/08 00:58:04;;;;;;;20.72;14.23;;;-1.90;99.90;;;;;;1817166;79;21027;-75
2022/03/08 01:00:32;;;;;;;20.02;13.45;;;-1.80;99.90;;;;;;1817183;79;21074;-75
2022/03/08 01:02:59;;;;;;;25.25;13.50;;;-1.80;99.90;;;;;;1817211;79;21067;-74
2022/03/08 01:05:27;;;;;;;27.07;12.03;;;-1.80;99.90;;;;;;1817174;79;21219;-74
2022/03/08 01:07:54;;;;;;;22.58;14.10;;;-1.80;99.90;;;;;;1817338;78;21105;-75
2022/03/08 01:10:22;;;;;;;20.17;12.80;;;-1.90;99.90;;;;;;1817086;78;21156;-75
2022/03/08 01:12:50;;;;;;;20.92;13.22;;;-1.90;99.90;;;;;;1817145;78;21107;-75
2022/03/08 01:15:18;;;;;;;19.75;14.25;;;-1.90;99.90;;;;;;1817014;79;21475;-74
2022/03/08 01:17:47;;;;;;;18.80;13.32;;;-1.80;99.90;;;;;;1818832;78;21113;-75
2022/03/08 01:20:14;;;;;;;20.32;13.50;;;-1.80;99.90;;;;;;1817210;79;21171;-75
2022/03/08 01:22:41;;;;;;;19.62;13.83;;;-1.90;99.90;;;;;;1817037;79;21123;-75
2022/03/08 01:25:10;;;;;;;20.88;14.38;;;-1.90;99.90;;;;;;1817027;79;21118;-74
2022/03/08 01:27:37;;;;;;;20.15;13.60;;;-1.90;99.90;;;;;;1816990;78;21043;-75
2022/03/08 01:30:07;;;;;;;27.42;14.55;;;-1.90;99.90;;;;;;1817263;79;21122;-76
2022/03/08 01:32:34;;;;;;;21.50;14.00;;;-1.90;99.90;;;;;;1817266;79;21036;-74
2022/03/08 01:35:01;;;;;;;24.70;14.33;;;-1.90;99.90;;;;;;1817150;79;21613;-76
2022/03/08 01:37:29;;;;;;;16.70;12.75;;;-1.80;99.90;;;;;;1817064;79;21117;-75
2022/03/08 01:39:56;;;;;;;18.95;12.95;;;-1.90;99.90;;;;;;1796453;79;21196;-75
2022/03/08 01:42:24;;;;;;;25.45;13.65;;;-2.00;99.90;;;;;;1817145;79;21035;-75
2022/03/08 01:44:52;;;;;;;23.95;13.55;;;-1.90;99.90;;;;;;1817053;79;21102;-75
2022/03/08 01:47:22;;;;;;;25.92;13.62;;;-1.90;99.90;;;;;;1817122;79;21514;-75
2022/03/08 01:49:50;;;;;;;20.00;13.55;;;-2.00;99.90;;;;;;1817013;79;21024;-75
2022/03/08 01:52:19;;;;;;;22.80;13.88;;;-2.00;99.90;;;;;;1817022;78;21012;-76
2022/03/08 01:54:46;;;;;;;20.32;13.35;;;-2.10;99.90;;;;;;1817101;78;21442;-75
2022/03/08 01:57:13;;;;;;;21.27;13.85;;;-2.20;99.90;;;;;;1817120;79;21039;-75
2022/03/08 01:59:41;;;;;;;21.33;13.72;;;-2.10;99.90;;;;;;1817092;79;21071;-75
2022/03/08 02:02:09;;;;;;;27.80;13.93;;;-2.20;99.90;;;;;;1817072;79;21051;-74
2022/03/08 02:04:36;;;;;;;21.90;14.45;;;-2.20;99.90;;;;;;1817002;78;21028;-74
2022/03/08 02:07:04;;;;;;;24.70;15.13;;;-2.30;99.90;;;;;;1817116;79;21498;-74
2022/03/08 02:09:31;;;;;;;23.18;14.70;;;-2.30;99.90;;;;;;1817179;79;21171;-75
2022/03/08 02:11:59;;;;;;;21.57;14.03;;;-2.30;99.90;;;;;;1817123;79;21028;-75
2022/03/08 02:14:27;;;;;;;25.25;14.73;;;-2.30;99.90;;;;;;1817055;78;21139;-74
2022/03/08 02:16:54;;;;;;;22.13;14.50;;;-2.20;99.90;;;;;;1817071;79;21035;-74
2022/03/08 02:19:21;;;;;;;24.95;14.28;;;-2.20;99.90;;;;;;1817028;79;21149;-75
2022/03/08 02:21:50;;;;;;;23.55;15.53;;;-2.30;99.90;;;;;;1817218;79;21113;-75
2022/03/08 02:24:18;;;;;;;24.72;14.53;;;-2.20;99.90;;;;;;1817094;78;21479;-74
2022/03/08 02:26:46;;;;;;;22.02;13.98;;;-2.20;99.90;;;;;;1817061;79;21051;-74
2022/03/08 02:29:13;;;;;;;23.25;14.90;;;-2.30;99.90;;;;;;1817199;79;21023;-75
2022/03/08 02:31:40;;;;;;;24.35;14.65;;;-2.30;99.90;;;;;;1817191;79;21109;-75
2022/03/08 02:34:08;;;;;;;32.93;13.85;;;-2.30;99.90;;;;;;1817124;78;21369;-75
2022/03/08 02:36:35;;;;;;;20.40;13.43;;;-2.30;99.90;;;;;;1817106;79;21117;-75
2022/03/08 02:39:03;;;;;;;18.90;13.38;;;-2.30;99.90;;;;;;1796356;79;21097;-75
2022/03/08 02:41:30;;;;;;;25.10;14.30;;;-2.40;99.90;;;;;;1817103;79;21020;-75
2022/03/08 02:43:57;;;;;;;26.75;15.08;;;-2.40;99.90;;;;;;1817059;79;21451;-75
2022/03/08 02:46:26;;;;;;;21.48;14.63;;;-2.40;99.90;;;;;;1817124;79;21098;-75
2022/03/08 02:48:53;;;;;;;25.55;14.30;;;-2.40;99.90;;;;;;1817026;78;21137;-75
2022/03/08 02:51:21;;;;;;;20.43;14.33;;;-2.40;99.90;;;;;;1817051;79;21027;-75
2022/03/08 02:53:48;;;;;;;26.90;16.10;;;-2.50;99.90;;;;;;1817052;79;21109;-76
2022/03/08 02:56:15;;;;;;;24.67;14.50;;;-2.50;99.90;;;;;;1817046;79;21044;-75
2022/03/08 02:58:43;;;;;;;24.95;14.43;;;-2.50;99.90;;;;;;1816983;79;21105;-75
2022/03/08 03:01:10;;;;;;;25.10;15.08;;;-2.40;99.90;;;;;;1816994;79;21204;-75
2022/03/08 03:03:37;;;;;;;24.32;14.78;;;-2.50;99.90;;;;;;1817096;79;21023;-74
2022/03/08 03:06:05;;;;;;;20.80;14.00;;;-2.50;99.90;;;;;;1816998;79;21117;-74
2022/03/08 03:08:32;;;;;;;22.93;14.73;;;-2.50;99.90;;;;;;1817023;79;21067;-74
2022/03/08 03:10:59;;;;;;;23.42;15.00;;;-2.50;99.90;;;;;;1817014;78;21117;-75
2022/03/08 03:13:26;;;;;;;20.35;12.80;;;-2.50;99.90;;;;;;1817031;79;21093;-75
2022/03/08 03:15:54;;;;;;;24.02;13.15;;;-2.50;99.90;;;;;;1817013;79;21046;-75
2022/03/08 03:18:21;;;;;;;22.15;14.30;;;-2.50;99.90;;;;;;1816988;78;21024;-75
2022/03/08 03:20:48;;;;;;;21.42;14.00;;;-2.50;99.90;;;;;;1817060;78;21432;-74
2022/03/08 03:23:16;;;;;;;28.27;14.38;;;-2.60;99.90;;;;;;1816987;79;21028;-75
2022/03/08 03:25:43;;;;;;;21.07;14.10;;;-2.60;99.90;;;;;;1817003;79;21476;-74
2022/03/08 03:28:10;;;;;;;27.73;13.90;;;-2.60;99.90;;;;;;1817130;79;21106;-74
2022/03/08 03:30:38;;;;;;;29.80;15.55;;;-2.50;99.90;;;;;;1817117;79;21428;-75
2022/03/08 03:33:05;;;;;;;22.87;14.30;;;-2.60;99.90;;;;;;1817007;79;21110;-75
2022/03/08 03:35:32;;;;;;;23.55;13.85;;;-2.60;99.90;;;;;;1818844;78;21573;-74
2022/03/08 03:38:00;;;;;;;33.85;14.15;;;-2.60;99.90;;;;;;1817064;79;21121;-74
2022/03/08 03:40:27;;;;;;;19.23;12.85;;;-2.60;99.90;;;;;;1796379;79;21032;-74
2022/03/08 03:42:54;;;;;;;20.32;12.95;;;-2.50;99.90;;;;;;1817158;78;21522;-74
2022/03/08 03:45:21;;;;;;;15.23;11.25;;;-2.60;99.90;;;;;;1817052;79;21059;-74
2022/03/08 03:47:49;;;;;;;23.52;10.88;;;-2.70;99.90;;;;;;1817254;79;21427;-75
2022/03/08 03:50:16;;;;;;;13.93;9.43;;;-2.70;99.90;;;;;;1817020;78;21106;-74
2022/03/08 03:52:43;;;;;;;15.60;8.95;;;-2.70;99.90;;;;;;1817190;79;21381;-74
2022/03/08 03:55:11;;;;;;;17.95;8.43;;;-2.70;99.90;;;;;;1816971;79;21039;-74
2022/03/08 03:57:38;;;;;;;14.25;8.30;;;-2.80;99.90;;;;;;1817107;78;21130;-74
2022/03/08 04:00:06;;;;;;;11.65;8.45;;;-2.80;99.90;;;;;;1817167;79;21404;-74
2022/03/08 04:02:34;;;;;;;11.50;8.18;;;-2.80;99.90;;;;;;1817175;78;21525;-74
2022/03/08 04:05:01;;;;;;;15.68;9.43;;;-2.80;99.90;;;;;;1817169;79;21016;-74
2022/03/08 04:07:29;;;;;;;13.00;9.10;;;-2.90;99.90;;;;;;1817247;79;21027;-74
2022/03/08 04:09:56;;;;;;;17.05;10.40;;;-2.90;99.90;;;;;;1817126;79;21056;-74
2022/03/08 04:12:23;;;;;;;21.15;12.10;;;-2.90;99.90;;;;;;1806211;79;21044;-74
2022/03/08 04:14:51;;;;;;;16.75;11.30;;;-2.90;99.90;;;;;;1802273;79;21106;-74
2022/03/08 04:17:18;;;;;;;22.07;11.88;;;-2.90;99.90;;;;;;1802342;80;21041;-75
2022/03/08 04:19:45;;;;;;;24.12;12.35;;;-2.90;99.90;;;;;;1802382;80;21102;-74
2022/03/08 04:22:12;;;;;;;21.30;11.93;;;-2.90;99.90;;;;;;1802369;80;21096;-75
2022/03/08 04:24:40;;;;;;;19.10;11.88;;;-2.90;99.90;;;;;;1802305;80;21028;-75
2022/03/08 04:27:07;;;;;;;24.63;13.28;;;-2.90;99.90;;;;;;1802427;80;21094;-74
2022/03/08 04:29:34;;;;;;;20.52;12.28;;;-2.80;99.90;;;;;;1802438;80;21127;-73
2022/03/08 04:32:02;;;;;;;21.27;12.50;;;-2.80;99.90;;;;;;1802272;80;21151;-75
2022/03/08 04:34:29;;;;;;;19.15;12.10;;;-2.70;99.90;;;;;;1802482;79;21165;-75
2022/03/08 04:36:56;;;;;;;17.45;12.23;;;-2.90;99.90;;;;;;1802371;80;21032;-75
2022/03/08 04:39:24;;;;;;;19.48;12.60;;;-2.80;99.90;;;;;;1802284;80;21114;-75
2022/03/08 04:41:53;;;;;;;17.25;11.00;;;-2.90;99.90;;;;;;1802351;80;21037;-74
2022/03/08 04:44:20;;;;;;;19.00;12.18;;;-2.90;99.90;;;;;;1802458;80;21036;-75
2022/03/08 04:46:47;;;;;;;14.80;9.83;;;-3.00;99.90;;;;;;1784572;80;21013;-75
2022/03/08 04:49:15;;;;;;;16.50;10.60;;;-2.80;99.90;;;;;;1802326;80;21118;-74
2022/03/08 04:51:42;;;;;;;16.50;10.50;;;-2.90;99.90;;;;;;1802330;80;21094;-74
2022/03/08 04:54:09;;;;;;;18.37;10.75;;;-3.00;99.90;;;;;;1802369;80;21032;-74
2022/03/08 04:56:37;;;;;;;15.53;10.08;;;-2.90;99.90;;;;;;1802450;80;21036;-74
2022/03/08 04:59:04;;;;;;;13.62;9.88;;;-2.90;99.90;;;;;;1802332;80;21005;-75
2022/03/08 05:01:32;;;;;;;22.45;9.98;;;-3.00;99.90;;;;;;1802344;80;21390;-75
2022/03/08 05:03:59;;;;;;;15.23;9.35;;;-3.00;99.90;;;;;;1802413;80;21032;-75
2022/03/08 05:06:30;;;;;;;14.87;8.58;;;-3.00;99.90;;;;;;1802387;80;21451;-74
2022/03/08 05:08:55;;;;;;;11.38;8.30;;;-3.00;99.90;;;;;;1802423;79;21135;-74
2022/03/08 05:11:23;;;;;;;22.27;9.15;;;-3.00;99.90;;;;;;1802469;80;21164;-75
2022/03/08 05:13:50;;;;;;;11.63;7.87;;;-2.90;99.90;;;;;;1802459;80;21029;-75
2022/03/08 05:16:18;;;;;;;13.78;8.53;;;-2.90;99.90;;;;;;1802343;80;21084;-73
2022/03/08 05:18:45;;;;;;;11.33;8.15;;;-2.90;99.90;;;;;;1802494;80;21130;-73
2022/03/08 05:21:12;;;;;;;14.87;8.55;;;-3.00;99.90;;;;;;1802459;80;21075;-72
2022/03/08 05:23:40;;;;;;;13.43;9.18;;;-3.10;99.90;;;;;;1802635;79;21381;-72
2022/03/08 05:26:07;;;;;;;15.68;8.90;;;-3.10;99.90;;;;;;1802487;80;21106;-72
2022/03/08 05:28:35;;;;;;;12.37;8.30;;;-3.00;99.90;;;;;;1802648;80;21450;-72
2022/03/08 05:31:02;;;;;;;14.55;9.35;;;-3.00;99.90;;;;;;1802564;80;21537;-73
2022/03/08 05:33:29;;;;;;;13.98;8.88;;;-3.00;99.90;;;;;;1810929;78;21167;-73
2022/03/08 05:35:57;;;;;;;13.72;9.48;;;-3.00;99.90;;;;;;1817308;78;21429;-75
2022/03/08 05:38:24;;;;;;;15.95;9.48;;;-3.00;99.90;;;;;;1817474;79;21098;-76
2022/03/08 05:40:53;;;;;;;15.05;9.75;;;-3.00;99.90;;;;;;1817627;79;21416;-74
2022/03/08 05:43:21;;;;;;;12.05;8.93;;;-3.10;99.90;;;;;;1817523;78;21059;-74
2022/03/08 05:45:48;;;;;;;16.73;10.50;;;-3.10;99.90;;;;;;1817312;79;21075;-74
2022/03/08 05:48:35;;;;;;;16.12;10.15;;;-2.90;99.90;;;;;;1817319;79;21012;-74
2022/03/08 05:51:02;;;;;;;19.07;9.90;;;-3.00;99.90;;;;;;1732032;82;21198;-75
2022/03/08 05:53:29;;;;;;;18.07;11.50;;;-2.90;99.90;;;;;;1731530;82;21528;-74
2022/03/08 05:55:57;;;;;;;17.98;10.72;;;-2.90;99.90;;;;;;1732428;83;21261;-74
2022/03/08 05:58:24;;;;;;;22.25;11.10;;;-2.90;99.90;;;;;;1728772;82;21114;-75
2022/03/08 06:00:51;;;;;;;15.95;9.95;;;-2.90;99.90;;;;;;1722626;82;21557;-73
2022/03/08 06:03:19;;;;;;;17.85;11.28;;;-3.00;99.90;;;;;;1753188;82;21065;-72
2022/03/08 06:05:46;;;;;;;15.65;10.28;;;-2.90;99.90;;;;;;1754186;82;21443;-73
2022/03/08 06:08:14;;;;;;;21.50;10.13;;;-2.80;99.90;;;;;;1753857;82;21239;-74
2022/03/08 06:10:43;;;;;;;23.27;10.70;;;-2.80;99.90;;;;;;1731760;82;21097;-75
2022/03/08 06:13:10;;;;;;;16.48;9.73;;;-2.80;99.90;;;;;;1795203;79;21616;-75
2022/03/08 06:15:38;;;;;;;17.65;9.50;;;-2.80;99.90;;;;;;1794409;79;21171;-75
2022/03/08 06:18:05;;;;;;;12.82;8.43;;;-2.80;99.90;;;;;;1791745;79;21560;-75
2022/03/08 06:20:33;;;;;;;19.07;9.20;;;-2.80;99.90;;;;;;1789241;79;22993;-74
2022/03/08 06:23:00;;;;;;;15.40;8.25;;;-2.80;99.90;;;;;;1790378;79;21163;-75
2022/03/08 06:25:27;;;;;;;15.43;8.55;;;-2.80;99.90;;;;;;1794120;79;21493;-75
2022/03/08 06:27:55;;;;;;;10.58;6.90;;;-2.80;99.90;;;;;;1789644;79;21078;-72
2022/03/08 06:30:22;;;;;;;11.90;7.47;;;-2.70;99.90;;;;;;1788715;79;21285;-71
2022/03/08 06:32:49;;;;;;;10.38;6.20;;;-2.60;99.90;;;;;;1787127;79;21102;-72
2022/03/08 06:35:18;;;;;;;14.25;8.30;;;-2.60;99.90;;;;;;1788382;79;21164;-73
2022/03/08 06:37:45;;;;;;;16.73;9.10;;;-2.50;99.90;;;;;;1785736;79;21180;-73
2022/03/08 06:40:13;;;;;;;27.52;11.45;;;-2.50;99.90;;;;;;1789405;79;21282;-70
2022/03/08 06:42:40;;;;;;;19.40;10.50;;;-2.40;99.90;;;;;;1793012;79;21571;-73
2022/03/08 06:45:08;;;;;;;27.60;13.32;;;-2.40;99.90;;;;;;1792839;79;21369;-73
2022/03/08 06:47:38;;;;;;;18.07;10.60;;;-2.40;99.90;;;;;;1793621;79;21584;-73
2022/03/08 06:50:06;;;;;;;18.80;10.63;;;-2.30;99.90;;;;;;1791853;79;21167;-73
2022/03/08 06:52:33;;;;;;;20.32;10.15;;;-2.20;99.90;;;;;;1767438;79;21254;-71
2022/03/08 06:55:01;;;;;;;14.00;9.38;;;-2.20;99.90;;;;;;1790745;79;21093;-74
2022/03/08 06:57:29;;;;;;;20.52;10.48;;;-2.10;99.90;;;;;;1790372;79;21109;-73
2022/03/08 06:59:56;;;;;;;17.70;10.95;;;-2.00;99.90;;;;;;1790120;79;21126;-74
2022/03/08 07:02:25;;;;;;;17.35;11.22;;;-2.00;99.90;;;;;;1786071;79;21098;-75
2022/03/08 07:04:52;;;;;;;19.65;11.28;;;-2.00;99.90;;;;;;1789906;79;21198;-74
2022/03/08 07:07:20;;;;;;;23.67;10.78;;;-1.90;99.90;;;;;;1793321;79;21447;-75
2022/03/08 07:09:47;;;;;;;18.42;9.18;;;-1.80;99.90;;;;;;1789496;79;21089;-73
2022/03/08 07:12:14;;;;;;;20.10;10.38;;;-1.70;99.90;;;;;;1785411;79;21550;-72
2022/03/08 07:14:42;;;;;;;12.53;8.13;;;-1.60;99.90;;;;;;1787494;79;21149;-73
2022/03/08 07:17:09;;;;;;;18.30;9.45;;;-1.40;99.90;;;;;;1789969;79;21094;-74
2022/03/08 07:19:36;;;;;;;18.07;9.75;;;-1.30;99.90;;;;;;1787919;79;21525;-74
2022/03/08 07:22:04;;;;;;;22.87;9.58;;;-1.20;99.90;;;;;;1789974;79;21074;-74
2022/03/08 07:24:31;;;;;;;21.23;9.58;;;-1.00;99.90;;;;;;1787183;79;21083;-74
2022/03/08 07:26:59;;;;;;;16.73;8.15;;;-0.90;99.90;;;;;;1791892;79;21129;-74
2022/03/08 07:29:26;;;;;;;12.05;8.18;;;-0.50;99.90;;;;;;1789568;79;21101;-74
2022/03/08 07:31:53;;;;;;;13.25;6.97;;;-0.10;99.90;;;;;;1784537;79;21093;-74
2022/03/08 07:34:21;;;;;;;12.58;6.42;;;0.10;99.90;;;;;;1789301;79;21565;-74
2022/03/08 07:36:48;;;;;;;9.08;6.40;;;0.30;99.90;;;;;;1786432;79;21188;-73
2022/03/08 07:39:21;;;;;;;9.10;5.97;;;0.70;99.90;;;;;;1790303;78;21098;-74
2022/03/08 07:41:50;;;;;;;7.85;5.60;;;0.90;99.90;;;;;;1791263;79;21172;-74
2022/03/08 07:44:20;;;;;;;11.83;6.10;;;1.10;99.90;;;;;;1786312;79;21136;-73
2022/03/08 07:46:48;;;;;;;11.48;5.78;;;1.30;99.90;;;;;;1780731;79;21215;-74
2022/03/08 07:49:15;;;;;;;7.85;5.08;;;1.50;99.90;;;;;;1781430;80;21110;-74
2022/03/08 07:51:43;;;;;;;7.25;5.62;;;1.80;99.90;;;;;;1779753;79;21082;-73
2022/03/08 07:54:10;;;;;;;10.85;6.28;;;1.80;99.90;;;;;;1790020;79;21197;-74
2022/03/08 07:56:40;;;;;;;8.35;5.80;;;2.00;99.90;;;;;;1791003;79;21575;-72
2022/03/08 07:59:08;;;;;;;8.53;5.70;;;2.10;99.90;;;;;;1789397;78;21125;-75
2022/03/08 08:01:35;;;;;;;7.37;5.60;;;2.30;99.90;;;;;;1789203;79;21171;-74
2022/03/08 08:04:02;;;;;;;7.92;5.47;;;2.40;99.90;;;;;;1792322;79;21689;-75
2022/03/08 08:06:30;;;;;;;9.75;6.25;;;2.60;99.90;;;;;;1790479;79;21082;-73
2022/03/08 08:08:57;;;;;;;7.97;5.75;;;2.70;99.90;;;;;;1784592;79;21244;-75
2022/03/08 08:11:24;;;;;;;12.78;5.70;;;2.80;99.90;;;;;;1788710;79;21106;-73
2022/03/08 08:13:53;;;;;;;11.88;5.83;;;3.00;99.90;;;;;;1784888;79;21526;-74
2022/03/08 08:16:20;;;;;;;7.10;5.22;;;3.10;99.90;;;;;;1792589;79;21167;-74
2022/03/08 08:18:48;;;;;;;9.43;5.97;;;3.30;99.90;;;;;;1772694;79;21670;-75
2022/03/08 08:21:37;;;;;;;6.25;5.40;;;3.30;99.90;;;;;;1791588;79;21187;-74
2022/03/08 08:24:04;;;;;;;8.63;5.25;;;3.40;99.90;;;;;;1759829;78;21180;-75
2022/03/08 08:26:31;;;;;;;8.98;5.35;;;3.60;99.90;;;;;;1819999;79;21516;-75
2022/03/08 08:28:59;;;;;;;9.53;5.87;;;3.80;99.90;;;;;;1827797;78;21085;-75
2022/03/08 08:31:28;;;;;;;8.53;5.67;;;3.90;99.90;;;;;;1822398;79;21454;-75
2022/03/08 08:33:55;;;;;;;12.13;5.22;;;4.00;99.90;;;;;;1822301;78;21097;-73
2022/03/08 08:36:23;;;;;;;7.28;5.25;;;4.10;99.90;;;;;;1822252;79;21152;-76
2022/03/08 08:38:50;;;;;;;13.62;5.60;;;4.30;99.90;;;;;;1822346;79;21127;-76
2022/03/08 08:41:19;;;;;;;7.92;5.17;;;4.30;99.90;;;;;;1822352;79;21120;-74
2022/03/08 08:43:46;;;;;;;7.50;4.90;;;4.60;99.90;;;;;;1822411;79;21127;-77
2022/03/08 08:46:13;;;;;;;8.18;5.35;;;4.80;99.90;;;;;;1822415;79;21135;-78
2022/03/08 08:48:41;;;;;;;6.80;4.62;;;5.00;99.90;;;;;;1797386;78;21069;-77
2022/03/08 08:51:08;;;;;;;8.03;4.80;;;5.00;99.90;;;;;;1828169;78;21093;-77
2022/03/08 08:53:35;;;;;;;6.72;4.50;;;5.10;99.90;;;;;;1828112;78;21147;-74
2022/03/08 08:56:03;;;;;;;7.90;5.45;;;5.20;99.90;;;;;;1827986;78;21073;-74
2022/03/08 08:58:30;;;;;;;5.58;4.80;;;5.40;99.90;;;;;;1828171;78;21068;-74
2022/03/08 09:00:57;;;;;;;6.10;4.83;;;5.50;99.90;;;;;;1828069;78;21100;-75
2022/03/08 09:03:25;;;;;;;11.55;5.12;;;5.50;99.90;;;;;;1828053;78;21442;-74
2022/03/08 09:05:52;;;;;;;7.70;4.85;;;5.60;99.90;;;;;;1827977;78;21127;-74
2022/03/08 09:08:23;;;;;;;5.37;4.47;;;5.80;99.90;;;;;;1828000;78;21427;-75
2022/03/08 09:10:48;;;;;;;7.17;4.50;;;6.00;99.90;;;;;;1827451;78;21162;-75
2022/03/08 09:13:15;;;;;;;10.25;4.70;;;6.20;99.90;;;;;;1828114;78;21523;-76
2022/03/08 09:15:44;;;;;;;9.75;5.15;;;5.90;99.90;;;;;;1828088;78;21057;-76
2022/03/08 09:18:13;;;;;;;8.25;5.20;;;6.10;99.90;;;;;;1828159;78;21189;-77
2022/03/08 09:20:41;;;;;;;6.87;4.78;;;6.10;99.90;;;;;;1828118;78;21196;-75
2022/03/08 09:23:08;;;;;;;9.75;4.28;;;6.30;99.90;;;;;;1828205;78;21105;-72
2022/03/08 09:25:36;;;;;;;9.30;4.85;;;6.40;99.90;;;;;;1828259;78;21147;-75
2022/03/08 09:28:06;;;;;;;6.55;4.40;;;6.60;99.90;;;;;;1828259;78;21520;-75
2022/03/08 09:30:35;;;;;;;5.47;4.42;;;6.90;99.80;;;;;;1828196;78;21454;-75
2022/03/08 09:33:02;;;;;;;4.45;3.85;;;6.80;97.40;;;;;;1828260;78;21069;-74
2022/03/08 09:35:30;;;;;;;11.12;4.22;;;6.80;97.40;;;;;;1827983;78;21144;-75
2022/03/08 09:37:57;;;;;;;6.35;4.33;;;6.80;97.40;;;;;;1827972;78;21516;-74
2022/03/08 09:40:24;;;;;;;6.17;4.47;;;6.90;97.80;;;;;;1828109;78;21516;-74
2022/03/08 09:42:52;;;;;;;11.12;4.78;;;7.40;97.20;;;;;;1828111;78;21078;-77
2022/03/08 09:45:19;;;;;;;12.07;4.20;;;7.10;96.60;;;;;;1828053;78;21143;-75
2022/03/08 09:47:46;;;;;;;8.43;4.33;;;7.50;94.80;;;;;;1828085;78;21528;-75
2022/03/08 09:50:14;;;;;;;6.17;4.05;;;7.80;93.80;;;;;;1828406;78;21065;-74
2022/03/08 09:52:42;;;;;;;6.15;4.50;;;8.10;93.90;;;;;;1828250;78;21057;-72
2022/03/08 09:55:14;;;;;;;9.38;4.62;;;8.10;92.80;;;;;;1828271;78;21453;-72
2022/03/08 09:57:43;;;;;;;8.93;4.72;;;7.90;92.50;;;;;;1828246;78;21142;-74
2022/03/08 10:00:13;;;;;;;6.78;3.95;;;7.90;92.60;;;;;;1828254;78;21069;-74
2022/03/08 10:02:45;;;;;;;11.15;4.10;;;7.80;92.30;;;;;;1828290;78;21054;-74
2022/03/08 10:05:12;;;;;;;6.05;4.05;;;8.10;91.40;;;;;;1828188;78;21225;-76
2022/03/08 10:07:40;;;;;;;5.97;3.77;;;8.30;90.30;;;;;;1828220;78;21181;-75
2022/03/08 10:10:09;;;;;;;6.53;4.25;;;8.40;89.50;;;;;;1828646;78;21085;-74
2022/03/08 10:12:36;;;;;;;9.33;4.72;;;8.40;87.10;;;;;;1828011;78;21150;-75
2022/03/08 10:15:20;;;;;;;6.78;4.12;;;8.30;86.90;;;;;;1828016;78;21159;-74
2022/03/08 10:17:47;;;;;;;6.47;4.00;;;8.20;85.60;;;;;;1828142;78;21128;-75
2022/03/08 10:20:14;;;;;;;4.37;3.25;;;8.40;84.20;;;;;;1828052;78;21159;-75
2022/03/08 10:22:43;;;;;;;5.30;3.85;;;8.40;83.00;;;;;;1772679;78;21094;-75
2022/03/08 10:25:16;;;;;;;4.97;3.98;;;8.50;81.30;;;;;;1828200;78;21097;-75
2022/03/08 10:27:56;;;;;;;4.80;3.85;;;8.50;81.10;;;;;;1828150;78;21474;-75
2022/03/08 10:30:25;;;;;;;5.20;3.80;;;8.40;82.30;;;;;;1824622;78;21477;-75
2022/03/08 10:32:56;;;;;;;6.75;3.90;;;8.90;80.70;;;;;;1828076;78;21289;-74
2022/03/08 10:35:24;;;;;;;5.90;4.15;;;9.30;79.10;;;;;;1828124;78;21062;-76
2022/03/08 10:37:51;;;;;;;6.60;4.30;;;8.40;79.70;;;;;;1828081;77;21068;-75
2022/03/08 10:40:29;;;;;;;8.73;3.72;;;9.00;78.20;;;;;;1828192;78;21131;-75
2022/03/08 10:43:01;;;;;;;4.97;3.77;;;9.40;76.70;;;;;;1827823;78;21187;-77
2022/03/08 10:45:29;;;;;;;6.20;3.65;;;9.70;74.40;;;;;;1828126;77;21108;-75
2022/03/08 10:47:56;;;;;;;7.83;3.85;;;9.90;73.50;;;;;;1828063;78;21158;-75
2022/03/08 10:50:26;;;;;;;4.33;3.40;;;9.60;73.30;;;;;;1827964;78;21128;-75
2022/03/08 10:52:55;;;;;;;5.10;3.75;;;9.30;72.40;;;;;;1828203;78;21166;-75
2022/03/08 10:55:31;;;;;;;5.00;3.47;;;9.00;73.70;;;;;;1828042;78;21061;-76
2022/03/08 10:58:01;;;;;;;4.50;3.58;;;9.30;72.80;;;;;;1827604;78;21108;-77
2022/03/08 11:00:33;;;;;;;7.30;3.77;;;9.80;72.30;;;;;;1828086;78;21052;-75
2022/03/08 11:03:02;;;;;;;5.65;3.83;;;10.40;70.50;;;;;;1828101;78;21133;-75
2022/03/08 11:05:33;;;;;;;5.42;3.50;;;10.20;69.40;;;;;;1828333;77;21058;-75
2022/03/08 11:08:00;;;;;;;5.67;3.52;;;10.20;67.90;;;;;;1828509;78;21140;-75
2022/03/08 11:10:28;;;;;;;7.72;3.70;;;9.70;67.80;;;;;;1828421;78;21186;-75
2022/03/08 11:12:56;;;;;;;5.55;3.30;;;10.00;67.40;;;;;;1828374;78;21073;-75
2022/03/08 11:15:24;;;;;;;9.53;3.75;;;9.80;65.50;;;;;;1828481;78;21151;-76
2022/03/08 11:17:53;;;;;;;3.77;3.30;;;9.70;65.80;;;;;;1828697;77;21450;-75
2022/03/08 11:20:21;;;;;;;4.90;3.58;;;10.00;65.60;;;;;;1828559;78;21065;-74
2022/03/08 11:23:09;;;;;;;4.83;3.30;;;10.20;66.50;;;;;;1828770;78;21069;-75
2022/03/08 11:25:39;;;;;;;5.72;3.77;;;10.20;63.10;;;;;;1866416;77;21095;-76
2022/03/08 11:28:06;;;;;;;4.92;3.75;;;10.20;64.20;;;;;;1858248;77;21121;-76
2022/03/08 11:30:45;;;;;;;4.58;3.42;;;10.80;63.00;;;;;;1866226;77;21098;-75
2022/03/08 11:33:35;;;;;;;6.62;3.80;;;10.70;62.40;;;;;;1866190;77;21134;-73
2022/03/08 11:36:17;;;;;;;5.12;3.70;;;10.10;61.40;;;;;;1866489;77;21187;-74
2022/03/08 11:38:44;;;;;;;4.60;3.80;;;10.20;62.70;;;;;;1866069;77;21479;-75
2022/03/08 11:41:13;;;;;;;5.30;4.00;;;10.20;61.70;;;;;;1865926;76;21044;-74
2022/03/08 11:43:47;;;;;;;7.30;4.00;;;10.70;62.50;;;;;;1858219;77;21091;-75
2022/03/08 11:46:19;;;;;;;5.37;3.65;;;10.90;60.40;;;;;;1866257;77;21078;-76
2022/03/08 11:49:04;;;;;;;6.35;3.85;;;11.30;60.70;;;;;;1866152;77;21040;-73
2022/03/08 11:51:33;;;;;;;6.65;4.22;;;11.40;59.60;;;;;;1866375;77;21197;-74
2022/03/08 11:54:02;;;;;;;10.80;4.05;;;11.90;59.70;;;;;;1866566;77;21146;-74
2022/03/08 11:56:30;;;;;;;7.35;4.47;;;11.60;59.40;;;;;;1866763;77;21040;-73
2022/03/08 11:59:00;;;;;;;4.75;3.83;;;11.20;58.70;;;;;;1866905;77;21056;-73
2022/03/08 12:01:30;;;;;;;;;;;11.50;58.90;;;;;;1867274;77;21444;-74
2022/03/08 12:03:59;;;;;;;7.72;3.87;;;11.10;58.90;;;;;;1866195;77;20138;-73
2022/03/08 12:06:31;;;;;;;20.40;4.50;;;11.10;59.80;;;;;;1866197;77;21425;-74
2022/03/08 12:09:07;;;;;;;5.10;4.30;;;11.50;59.60;;;;;;1866625;77;21052;-72
2022/03/08 12:11:36;;;;;;;4.78;3.65;;;11.50;59.20;;;;;;1865970;77;21089;-74
2022/03/08 12:14:20;;;;;;;7.87;4.62;;;12.10;58.50;;;;;;1865282;77;21087;-73
2022/03/08 12:16:52;;;;;;;7.10;5.00;;;11.60;58.00;;;;;;1866340;77;21104;-74
2022/03/08 12:19:34;;;;;;;7.00;4.22;;;11.90;59.50;;;;;;1866126;77;21051;-73
2022/03/08 12:22:02;;;;;;;8.20;4.87;;;12.00;58.90;;;;;;1866188;77;21005;-75
2022/03/08 12:24:33;;;;;;;6.15;4.60;;;12.00;58.20;;;;;;1866073;76;21122;-73
2022/03/08 12:27:02;;;;;;;;;;;11.40;57.30;;;;;;1867927;77;21149;-73
2022/03/08 12:29:49;;;;;;;5.58;4.50;;;11.80;58.90;;;;;;1865976;77;20145;-74
2022/03/08 12:32:41;;;;;;;8.80;4.33;;;12.10;56.70;;;;;;1866095;77;21118;-72
2022/03/08 12:35:22;;;;;;;6.35;4.60;;;12.10;56.70;;;;;;1866014;77;21135;-74
2022/03/08 12:37:52;;;;;;;;;;;12.30;56.30;;;;;;1868154;77;21097;-74
2022/03/08 12:40:22;;;;;;;8.35;4.10;;;13.00;55.70;;;;;;1866121;77;20349;-74
2022/03/08 12:42:55;;;;;;;7.53;4.42;;;13.40;56.20;;;;;;1866115;77;21110;-73
2022/03/08 12:45:31;;;;;;;7.05;4.50;;;13.10;55.10;;;;;;1865785;77;21084;-74
2022/03/08 12:48:07;;;;;;;8.35;4.40;;;13.40;55.20;;;;;;1864632;77;21106;-73